createdAt,value
2022-10-22T00:01:21.423Z,80.45
2022-10-22T00:03:51.023Z,80.96
2022-10-22T00:06:18.433Z,80.81
2022-10-22T00:08:45.935Z,80.72
2022-10-22T00:11:17.509Z,80.78
2022-10-22T00:16:14.939Z,79.97
2022-10-22T00:18:42.573Z,80.42
2022-10-22T00:21:10.431Z,81.30
2022-10-22T00:23:42.531Z,81.77
2022-10-22T00:26:10.939Z,81.79
2022-10-22T00:28:38.839Z,82.52
2022-10-22T00:31:07.070Z,82.84
2022-10-22T00:33:34.764Z,82.41
2022-10-22T00:36:02.432Z,82.34
2022-10-22T00:38:29.915Z,81.31
2022-10-22T00:40:57.467Z,82.07
2022-10-22T00:43:24.951Z,82.09
2022-10-22T00:45:52.359Z,81.90
2022-10-22T00:48:25.894Z,82.43
2022-10-22T00:51:07.259Z,82.15
2022-10-22T00:53:46.186Z,82.91
2022-10-22T00:56:14.340Z,83.74
2022-10-22T00:58:53.050Z,84.18
2022-10-22T01:01:28.456Z,84.00
2022-10-22T01:03:56.494Z,84.43
2022-10-22T01:06:29.242Z,84.89
2022-10-22T01:09:42.907Z,85.56
2022-10-22T01:12:18.967Z,85.99
2022-10-22T01:15:23.828Z,84.68
2022-10-22T01:18:21.141Z,85.12
2022-10-22T01:21:03.659Z,85.55
2022-10-22T01:24:07.834Z,85.52
2022-10-22T01:27:06.459Z,86.58
2022-10-22T01:29:42.280Z,86.28
2022-10-22T01:32:18.815Z,87.05
2022-10-22T01:34:54.342Z,87.86
2022-10-22T01:37:27.660Z,86.75
2022-10-22T01:39:57.441Z,86.33
2022-10-22T01:42:25.484Z,86.14
2022-10-22T01:44:52.925Z,87.25
2022-10-22T01:47:48.541Z,87.12
2022-10-22T01:50:43.100Z,87.58
2022-10-22T01:53:29.725Z,88.09
2022-10-22T01:56:16.842Z,88.06
2022-10-22T01:59:10.717Z,89.17
2022-10-22T02:02:08.242Z,87.76
2022-10-22T02:04:40.072Z,88.52
2022-10-22T02:07:12.903Z,88.40
2022-10-22T02:09:41.786Z,88.08
2022-10-22T02:12:14.817Z,88.39
2022-10-22T02:14:44.910Z,87.56
2022-10-22T02:17:18.671Z,87.74
2022-10-22T02:19:59.413Z,86.57
2022-10-22T02:22:28.265Z,86.54
2022-10-22T02:24:56.607Z,87.33
2022-10-22T02:27:44.479Z,87.63
2022-10-22T02:30:24.169Z,88.00
2022-10-22T02:33:04.622Z,87.92
2022-10-22T02:35:32.767Z,88.76
2022-10-22T02:38:01.248Z,89.08
2022-10-22T02:40:31.547Z,89.84
2022-10-22T02:42:59.221Z,90.04
2022-10-22T02:45:26.749Z,90.49
2022-10-22T02:47:54.180Z,89.95
2022-10-22T02:50:21.612Z,90.25
2022-10-22T02:52:49.102Z,89.32
2022-10-22T02:55:16.752Z,88.83
2022-10-22T02:57:44.294Z,89.42
2022-10-22T03:00:13.144Z,88.91
2022-10-22T03:02:40.574Z,86.88
2022-10-22T03:05:08.873Z,86.25
2022-10-22T03:07:36.310Z,87.27
2022-10-22T03:10:04.630Z,86.56
2022-10-22T03:12:32.032Z,87.06
2022-10-22T03:14:59.581Z,88.70
2022-10-22T03:17:27.047Z,88.33
2022-10-22T03:19:57.266Z,88.47
2022-10-22T03:22:30.236Z,89.17
2022-10-22T03:25:04.864Z,88.71
2022-10-22T03:27:32.283Z,88.46
2022-10-22T03:30:03.445Z,89.18
2022-10-22T03:32:30.994Z,90.68
2022-10-22T03:37:31.115Z,90.57
2022-10-22T03:39:58.699Z,89.25
2022-10-22T03:42:26.188Z,88.72
2022-10-22T03:44:54.040Z,88.59
2022-10-22T03:47:24.444Z,89.84
2022-10-22T03:49:52.921Z,87.43
2022-10-22T03:52:20.512Z,87.58
2022-10-22T03:54:47.995Z,87.71
2022-10-22T03:57:15.739Z,87.84
2022-10-22T03:59:46.094Z,88.97
2022-10-22T04:02:14.598Z,89.03
2022-10-22T04:04:42.046Z,85.63
2022-10-22T04:07:09.510Z,85.32
2022-10-22T04:09:37.432Z,85.18
2022-10-22T04:12:09.518Z,85.75
2022-10-22T04:14:37.011Z,86.75
2022-10-22T04:17:04.974Z,88.78
2022-10-22T04:19:32.779Z,87.98
2022-10-22T04:22:00.698Z,88.10
2022-10-22T04:24:29.606Z,90.04
2022-10-22T04:26:57.121Z,90.93
2022-10-22T04:29:24.893Z,91.63
2022-10-22T04:31:52.594Z,92.57
2022-10-22T04:34:20.115Z,93.27
2022-10-22T04:36:47.734Z,93.25
2022-10-22T04:39:15.639Z,93.71
2022-10-22T04:41:43.167Z,93.98
2022-10-22T04:44:13.645Z,93.14
2022-10-22T04:46:44.448Z,90.48
2022-10-22T04:49:12.012Z,87.90
2022-10-22T04:51:39.694Z,87.29
2022-10-22T04:54:07.618Z,88.43
2022-10-22T04:56:35.134Z,87.66
2022-10-22T04:59:07.328Z,86.87
2022-10-22T05:01:41.736Z,86.62
2022-10-22T05:04:17.521Z,86.11
2022-10-22T05:06:45.412Z,86.38
2022-10-22T05:09:18.026Z,85.84
2022-10-22T05:11:49.226Z,81.74
2022-10-22T05:14:20.154Z,80.22
2022-10-22T05:16:48.723Z,83.62
2022-10-22T05:19:24.167Z,86.79
2022-10-22T05:21:53.404Z,89.54
2022-10-22T05:24:21.303Z,91.41
2022-10-22T05:26:53.346Z,90.74
2022-10-22T05:29:24.664Z,91.73
2022-10-22T05:31:54.154Z,90.42
2022-10-22T05:34:21.629Z,90.22
2022-10-22T05:36:49.190Z,90.12
2022-10-22T05:39:16.757Z,89.40
2022-10-22T05:41:44.258Z,88.15
2022-10-22T05:44:13.939Z,87.88
2022-10-22T05:46:43.396Z,88.12
2022-10-22T05:49:15.339Z,88.29
2022-10-22T05:51:43.141Z,89.37
2022-10-22T05:54:22.620Z,89.33
2022-10-22T05:56:50.125Z,88.91
2022-10-22T05:59:17.642Z,88.17
2022-10-22T06:01:45.257Z,87.89
2022-10-22T06:04:13.879Z,86.98
2022-10-22T06:07:01.708Z,85.60
2022-10-22T06:09:34.384Z,85.29
2022-10-22T06:12:02.759Z,84.35
2022-10-22T06:14:32.680Z,84.04
2022-10-22T06:17:01.146Z,84.15
2022-10-22T06:19:31.618Z,83.42
2022-10-22T06:21:59.198Z,82.92
2022-10-22T06:24:27.066Z,82.49
2022-10-22T06:26:54.679Z,81.21
2022-10-22T06:29:23.500Z,80.68
2022-10-22T06:31:51.019Z,80.32
2022-10-22T06:34:19.084Z,79.46
2022-10-22T06:36:47.763Z,79.00
2022-10-22T06:39:17.718Z,77.54
2022-10-22T06:41:45.759Z,78.79
2022-10-22T06:44:20.085Z,76.42
2022-10-22T06:46:53.763Z,73.51
2022-10-22T06:49:21.820Z,71.27
2022-10-22T06:51:54.102Z,70.81
2022-10-22T06:54:22.703Z,68.68
2022-10-22T06:56:50.582Z,69.62
2022-10-22T06:59:18.637Z,68.28
2022-10-22T07:01:46.230Z,67.87
2022-10-22T07:04:19.522Z,66.68
2022-10-22T07:06:47.643Z,66.18
2022-10-22T07:09:15.524Z,62.38
2022-10-22T07:11:46.744Z,64.24
2022-10-22T07:14:16.652Z,66.02
2022-10-22T07:16:45.712Z,66.83
2022-10-22T07:19:13.541Z,65.88
2022-10-22T07:21:43.624Z,65.24
2022-10-22T07:24:11.096Z,63.88
2022-10-22T07:26:40.038Z,61.57
2022-10-22T07:29:07.548Z,62.26
2022-10-22T07:31:37.779Z,62.30
2022-10-22T07:34:05.452Z,62.63
2022-10-22T07:36:33.962Z,61.57
2022-10-22T07:39:02.350Z,61.80
2022-10-22T07:41:30.917Z,62.52
2022-10-22T07:43:59.629Z,63.88
2022-10-22T07:46:28.318Z,63.04
2022-10-22T07:48:56.010Z,63.89
2022-10-22T07:51:23.708Z,62.94
2022-10-22T07:53:51.897Z,60.42
2022-10-22T07:56:20.567Z,59.12
2022-10-22T07:58:51.153Z,59.89
2022-10-22T08:01:18.759Z,58.70
2022-10-22T08:03:46.195Z,58.13
2022-10-22T08:06:15.004Z,59.68
2022-10-22T08:08:45.786Z,58.06
2022-10-22T08:11:13.570Z,59.07
2022-10-22T08:13:45.062Z,57.13
2022-10-22T08:16:13.844Z,57.65
2022-10-22T08:18:41.307Z,58.24
2022-10-22T08:21:08.970Z,56.95
2022-10-22T08:23:36.481Z,57.46
2022-10-22T08:26:04.805Z,56.65
2022-10-22T08:28:36.954Z,57.75
2022-10-22T08:31:07.546Z,58.41
2022-10-22T08:33:35.293Z,56.03
2022-10-22T08:36:03.033Z,53.12
2022-10-22T08:38:31.514Z,54.78
2022-10-22T08:41:14.026Z,54.11
2022-10-22T08:44:26.041Z,53.58
2022-10-22T08:47:42.636Z,52.17
2022-10-22T08:50:22.319Z,51.50
2022-10-22T08:52:56.686Z,50.42
2022-10-22T08:55:26.766Z,52.22
2022-10-22T08:58:22.582Z,51.92
2022-10-22T09:01:23.755Z,50.29
2022-10-22T09:04:25.470Z,51.10
2022-10-22T09:06:56.457Z,49.04
2022-10-22T09:09:36.386Z,49.46
2022-10-22T09:12:19.323Z,49.29
2022-10-22T09:14:49.650Z,47.73
2022-10-22T09:17:35.422Z,47.38
2022-10-22T09:20:58.382Z,45.58
2022-10-22T09:23:50.108Z,46.40
2022-10-22T09:26:18.829Z,46.17
2022-10-22T09:28:51.524Z,43.44
2022-10-22T09:31:19.746Z,44.89
2022-10-22T09:33:51.639Z,45.15
2022-10-22T09:36:23.842Z,42.93
2022-10-22T09:38:55.831Z,44.49
2022-10-22T09:41:29.981Z,44.63
2022-10-22T09:43:59.533Z,44.38
2022-10-22T09:46:31.021Z,44.76
2022-10-22T09:49:10.519Z,43.75
2022-10-22T09:51:56.135Z,44.13
2022-10-22T09:54:27.062Z,44.44
2022-10-22T09:57:05.558Z,43.44
2022-10-22T09:59:43.182Z,44.01
2022-10-22T10:02:20.342Z,43.03
2022-10-22T10:04:58.838Z,42.37
2022-10-22T10:07:31.949Z,41.47
2022-10-22T10:10:00.910Z,41.13
2022-10-22T10:15:47.237Z,40.11
2022-10-22T10:18:48.622Z,40.98
2022-10-22T10:21:33.805Z,40.33
2022-10-22T10:24:25.627Z,40.47
2022-10-22T10:27:09.369Z,40.48
2022-10-22T10:30:06.690Z,39.77
2022-10-22T10:33:01.805Z,39.82
2022-10-22T10:35:56.868Z,39.79
2022-10-22T10:38:42.464Z,37.74
2022-10-22T10:41:12.940Z,38.49
2022-10-22T10:44:29.392Z,38.59
2022-10-22T10:46:56.795Z,37.57
2022-10-22T10:49:27.746Z,37.16
2022-10-22T10:52:02.404Z,37.32
2022-10-22T10:55:11.227Z,36.49
2022-10-22T10:58:11.496Z,35.27
2022-10-22T11:00:59.288Z,36.97
2022-10-22T11:03:52.939Z,36.93
2022-10-22T11:06:25.505Z,36.33
2022-10-22T11:09:15.195Z,36.26
2022-10-22T11:11:55.989Z,36.61
2022-10-22T11:14:30.105Z,36.24
2022-10-22T11:17:14.702Z,35.37
2022-10-22T11:20:12.095Z,35.11
2022-10-22T11:23:21.225Z,33.73
2022-10-22T11:25:51.085Z,33.34
2022-10-22T11:28:36.241Z,33.30
2022-10-22T11:31:10.709Z,32.98
2022-10-22T11:34:04.834Z,32.01
2022-10-22T11:36:34.141Z,31.90
2022-10-22T11:39:05.710Z,32.32
2022-10-22T11:41:36.159Z,32.58
2022-10-22T11:44:21.500Z,32.21
2022-10-22T11:46:58.481Z,31.97
2022-10-22T11:49:29.021Z,32.77
2022-10-22T11:52:48.186Z,34.56
2022-10-22T11:56:00.016Z,35.01
2022-10-22T11:58:32.973Z,34.64
2022-10-22T12:01:09.126Z,34.49
2022-10-22T12:03:45.030Z,35.30
2022-10-22T12:06:15.755Z,35.66
2022-10-22T12:09:04.903Z,36.75
2022-10-22T12:11:47.909Z,35.57
2022-10-22T12:14:32.923Z,36.37
2022-10-22T12:17:16.694Z,36.23
2022-10-22T12:19:47.901Z,36.69
2022-10-22T12:22:33.089Z,37.33
2022-10-22T12:25:06.128Z,35.95
2022-10-22T12:27:42.221Z,37.12
2022-10-22T12:30:36.795Z,36.05
2022-10-22T12:33:17.161Z,36.74
2022-10-22T12:35:48.995Z,36.24
2022-10-22T12:38:23.725Z,36.12
2022-10-22T12:40:56.043Z,35.72
2022-10-22T12:43:29.806Z,35.32
2022-10-22T12:46:00.173Z,36.75
2022-10-22T12:48:40.799Z,36.39
2022-10-22T12:51:12.143Z,35.92
2022-10-22T12:53:51.109Z,34.05
2022-10-22T12:56:28.891Z,32.23
2022-10-22T12:59:02.337Z,31.46
2022-10-22T13:01:38.219Z,30.66
2022-10-22T13:04:27.179Z,29.94
2022-10-22T13:07:14.258Z,30.83
2022-10-22T13:10:01.314Z,30.88
2022-10-22T13:12:37.281Z,31.50
2022-10-22T13:15:35.431Z,32.50
2022-10-22T13:18:25.141Z,33.93
2022-10-22T13:21:01.743Z,33.13
2022-10-22T13:23:32.811Z,32.89
2022-10-22T13:26:15.520Z,34.61
2022-10-22T13:28:54.487Z,35.27
2022-10-22T13:31:28.254Z,35.81
2022-10-22T13:34:08.401Z,34.26
2022-10-22T13:36:38.379Z,35.51
2022-10-22T13:39:10.862Z,34.83
2022-10-22T13:41:41.400Z,35.25
2022-10-22T13:44:09.985Z,35.32
2022-10-22T13:46:43.679Z,33.72
2022-10-22T13:49:18.352Z,34.83
2022-10-22T13:51:47.367Z,34.61
2022-10-22T13:54:22.435Z,33.93
2022-10-22T13:56:53.650Z,32.64
2022-10-22T13:59:22.988Z,30.91
2022-10-22T14:01:53.893Z,30.25
2022-10-22T14:04:21.446Z,27.99
2022-10-22T14:06:48.989Z,27.83
2022-10-22T14:09:17.266Z,27.42
2022-10-22T14:11:44.713Z,26.56
2022-10-22T14:14:14.309Z,26.84
2022-10-22T14:16:42.535Z,26.32
2022-10-22T14:19:19.473Z,25.61
2022-10-22T14:21:50.201Z,25.39
2022-10-22T14:24:17.757Z,25.97
2022-10-22T14:26:47.869Z,26.32
2022-10-22T14:29:16.503Z,26.02
2022-10-22T14:31:45.069Z,26.17
2022-10-22T14:34:15.801Z,27.22
2022-10-22T14:36:46.397Z,28.29
2022-10-22T14:39:14.641Z,28.85
2022-10-22T14:41:43.095Z,29.24
2022-10-22T14:44:16.376Z,29.93
2022-10-22T14:46:46.781Z,30.69
2022-10-22T14:49:14.485Z,30.14
2022-10-22T14:51:43.044Z,30.05
2022-10-22T14:54:13.053Z,31.11
2022-10-22T14:56:40.553Z,31.60
2022-10-22T14:59:09.013Z,32.87
2022-10-22T15:01:36.516Z,33.32
2022-10-22T15:04:04.326Z,34.58
2022-10-22T15:06:32.107Z,35.28
2022-10-22T15:08:59.702Z,35.30
2022-10-22T15:11:27.256Z,36.29
2022-10-22T15:13:54.745Z,37.46
2022-10-22T15:16:23.799Z,38.54
2022-10-22T15:18:53.050Z,38.86
2022-10-22T15:21:22.778Z,39.52
2022-10-22T15:23:50.716Z,40.36
2022-10-22T15:26:18.708Z,40.96
2022-10-22T15:28:46.176Z,41.41
2022-10-22T15:31:15.193Z,40.92
2022-10-22T15:33:43.930Z,41.52
2022-10-22T15:36:20.646Z,41.66
2022-10-22T15:38:48.509Z,42.98
2022-10-22T15:41:16.149Z,43.91
2022-10-22T15:43:44.581Z,43.93
2022-10-22T15:46:19.862Z,44.13
2022-10-22T15:48:51.705Z,44.74
2022-10-22T15:51:22.164Z,45.03
2022-10-22T15:53:59.297Z,45.76
2022-10-22T15:56:29.551Z,45.64
2022-10-22T15:59:02.985Z,45.86
2022-10-22T16:01:38.189Z,46.56
2022-10-22T16:04:06.904Z,46.83
2022-10-22T16:06:43.899Z,47.21
2022-10-22T16:09:18.220Z,47.34
2022-10-22T16:11:47.609Z,47.62
2022-10-22T16:14:17.712Z,47.68
2022-10-22T16:16:50.035Z,47.99
2022-10-22T16:19:21.326Z,48.43
2022-10-22T16:21:56.345Z,48.74
2022-10-22T16:24:25.642Z,48.94
2022-10-22T16:26:53.938Z,49.59
2022-10-22T16:29:21.864Z,49.77
2022-10-22T16:31:49.488Z,49.08
2022-10-22T16:34:18.022Z,49.88
2022-10-22T16:39:20.212Z,50.11
2022-10-22T16:41:47.750Z,49.87
2022-10-22T16:44:16.409Z,49.92
2022-10-22T16:46:52.416Z,50.62
2022-10-22T16:49:21.468Z,50.54
2022-10-22T16:51:49.074Z,50.80
2022-10-22T16:54:16.613Z,51.13
2022-10-22T16:56:44.600Z,50.96
2022-10-22T16:59:12.102Z,51.58
2022-10-22T17:01:41.412Z,51.83
2022-10-22T17:04:31.610Z,51.57
2022-10-22T17:07:00.968Z,52.02
2022-10-22T17:09:29.880Z,52.55
2022-10-22T17:11:57.620Z,51.52
2022-10-22T17:14:25.646Z,51.96
2022-10-22T17:16:53.916Z,52.56
2022-10-22T17:19:23.568Z,53.52
2022-10-22T17:21:53.463Z,53.65
2022-10-22T17:24:21.534Z,54.39
2022-10-22T17:26:48.959Z,55.12
2022-10-22T17:29:16.873Z,54.77
2022-10-22T17:31:45.546Z,54.94
2022-10-22T17:34:17.650Z,55.54
2022-10-22T17:36:45.791Z,56.02
2022-10-22T17:39:18.507Z,56.08
2022-10-22T17:41:46.121Z,56.30
2022-10-22T17:44:16.589Z,56.91
2022-10-22T17:46:49.658Z,57.27
2022-10-22T17:49:44.920Z,57.46
2022-10-22T17:52:21.821Z,58.61
2022-10-22T17:54:53.130Z,58.00
2022-10-22T17:57:20.763Z,58.51
2022-10-22T17:59:48.263Z,58.39
2022-10-22T18:02:18.805Z,59.11
2022-10-22T18:04:46.283Z,59.38
2022-10-22T18:07:14.952Z,59.82
2022-10-22T18:09:42.968Z,60.43
2022-10-22T18:12:13.706Z,60.76
2022-10-22T18:14:41.443Z,61.47
2022-10-22T18:17:10.145Z,61.66
2022-10-22T18:19:37.751Z,62.21
2022-10-22T18:22:07.463Z,62.29
2022-10-22T18:24:39.016Z,62.45
2022-10-22T18:27:07.798Z,63.15
2022-10-22T18:29:35.212Z,58.48
2022-10-22T18:32:09.411Z,56.57
2022-10-22T18:34:40.711Z,56.92
2022-10-22T18:37:09.303Z,59.07
2022-10-22T18:39:40.511Z,59.84
2022-10-22T18:42:11.441Z,60.79
2022-10-22T18:44:40.349Z,62.63
2022-10-22T18:47:14.910Z,62.18
2022-10-22T18:49:43.093Z,63.03
2022-10-22T18:52:10.864Z,62.10
2022-10-22T18:54:39.649Z,62.44
2022-10-22T18:57:07.232Z,62.51
2022-10-22T18:59:35.290Z,63.73
2022-10-22T19:02:03.325Z,65.11
2022-10-22T19:04:36.787Z,65.04
2022-10-22T19:07:10.650Z,65.56
2022-10-22T19:09:40.380Z,66.26
2022-10-22T19:12:13.873Z,66.29
2022-10-22T19:14:42.762Z,65.27
2022-10-22T19:17:10.730Z,65.44
2022-10-22T19:19:40.671Z,65.78
2022-10-22T19:22:09.414Z,67.03
2022-10-22T19:24:38.396Z,67.12
2022-10-22T19:27:10.792Z,66.55
2022-10-22T19:29:41.743Z,66.63
2022-10-22T19:32:21.745Z,67.73
2022-10-22T19:35:04.355Z,67.59
2022-10-22T19:37:37.851Z,68.84
2022-10-22T19:40:09.980Z,69.29
2022-10-22T19:42:58.556Z,69.56
2022-10-22T19:45:28.642Z,69.39
2022-10-22T19:48:02.844Z,69.64
2022-10-22T19:50:35.476Z,69.42
2022-10-22T19:53:04.525Z,69.53
2022-10-22T19:55:39.580Z,70.86
2022-10-22T19:58:09.960Z,70.77
2022-10-22T20:00:42.182Z,70.46
2022-10-22T20:03:15.254Z,69.39
2022-10-22T20:05:44.429Z,69.96
2022-10-22T20:08:13.898Z,69.64
2022-10-22T20:10:42.546Z,69.58
2022-10-22T20:13:14.351Z,70.46
2022-10-22T20:15:43.315Z,70.75
2022-10-22T20:18:11.090Z,71.15
2022-10-22T20:20:40.714Z,71.51
2022-10-22T20:23:12.587Z,71.06
2022-10-22T20:25:48.522Z,70.89
2022-10-22T20:28:22.525Z,70.90
2022-10-22T20:30:50.590Z,70.92
2022-10-22T20:33:18.144Z,71.81
2022-10-22T20:35:45.595Z,71.64
2022-10-22T20:38:19.188Z,72.39
2022-10-22T20:40:47.812Z,72.08
2022-10-22T20:43:15.324Z,71.86
2022-10-22T20:45:42.733Z,72.29
2022-10-22T20:48:10.501Z,71.59
2022-10-22T20:50:38.231Z,71.62
2022-10-22T20:53:08.429Z,72.39
2022-10-22T20:55:36.560Z,72.93
2022-10-22T20:58:05.598Z,73.66
2022-10-22T21:00:35.987Z,73.38
2022-10-22T21:03:03.467Z,74.05
2022-10-22T21:05:31.209Z,75.13
2022-10-22T21:07:59.715Z,75.21
2022-10-22T21:10:32.466Z,75.46
2022-10-22T21:13:00.589Z,76.32
2022-10-22T21:15:28.708Z,76.87
2022-10-22T21:17:57.668Z,76.50
2022-10-22T21:20:25.107Z,76.98
2022-10-22T21:22:52.656Z,77.38
2022-10-22T21:25:21.140Z,77.89
2022-10-22T21:27:50.268Z,77.10
2022-10-22T21:30:17.914Z,76.65
2022-10-22T21:32:45.597Z,77.56
2022-10-22T21:35:13.059Z,77.57
2022-10-22T21:37:41.862Z,75.97
2022-10-22T21:40:10.299Z,76.57
2022-10-22T21:42:37.697Z,76.98
2022-10-22T21:45:10.492Z,77.07
2022-10-22T21:47:42.255Z,76.67
2022-10-22T21:50:10.206Z,75.81
2022-10-22T21:52:37.573Z,75.63
2022-10-22T21:55:05.547Z,76.15
2022-10-22T21:57:32.980Z,76.91
2022-10-22T22:00:00.406Z,77.73
2022-10-22T22:02:28.842Z,77.77
2022-10-22T22:04:57.570Z,78.18
2022-10-22T22:07:25.053Z,78.49
2022-10-22T22:09:52.588Z,79.06
2022-10-22T22:12:21.137Z,79.63
2022-10-22T22:14:48.613Z,80.15
2022-10-22T22:17:16.729Z,80.15
2022-10-22T22:19:44.294Z,80.80
2022-10-22T22:22:11.708Z,80.91
2022-10-22T22:24:42.400Z,81.02
2022-10-22T22:27:09.964Z,80.47
2022-10-22T22:29:37.458Z,80.36
2022-10-22T22:32:05.041Z,80.95
2022-10-22T22:34:32.490Z,81.13
2022-10-22T22:36:59.860Z,80.78
2022-10-22T22:39:27.328Z,80.61
2022-10-22T22:41:54.750Z,80.03
2022-10-22T22:44:22.172Z,79.61
2022-10-22T22:46:49.593Z,79.55
2022-10-22T22:49:17.620Z,79.76
2022-10-22T22:51:45.210Z,81.09
2022-10-22T22:54:12.802Z,80.43
2022-10-22T22:56:40.991Z,80.65
2022-10-22T22:59:08.458Z,81.16
2022-10-22T23:01:38.741Z,81.33
2022-10-22T23:04:13.015Z,81.11
2022-10-22T23:06:41.185Z,81.84
2022-10-22T23:09:11.868Z,82.02
2022-10-22T23:11:41.124Z,82.26
2022-10-22T23:14:12.486Z,81.06
2022-10-22T23:16:49.538Z,80.97
2022-10-22T23:19:21.539Z,81.24
2022-10-22T23:21:54.868Z,81.45
2022-10-22T23:24:27.239Z,81.47
2022-10-22T23:27:02.744Z,81.69
2022-10-22T23:29:33.685Z,81.15
2022-10-22T23:32:03.218Z,82.09
2022-10-22T23:34:32.307Z,81.87
2022-10-22T23:37:00.650Z,81.15
2022-10-22T23:39:29.786Z,80.77
2022-10-22T23:41:58.311Z,81.04
2022-10-22T23:44:26.421Z,81.98
2022-10-22T23:46:55.161Z,83.50
2022-10-22T23:49:22.728Z,84.22
2022-10-22T23:51:50.189Z,85.19
2022-10-22T23:54:18.652Z,85.71
2022-10-22T23:56:46.698Z,85.95
